createdAt,value
2016-03-10T00:00:59.189Z,0
2016-03-10T00:01:59.144Z,0
2016-03-10T00:02:59.115Z,0
2016-03-10T00:03:59.117Z,0
2016-03-10T00:04:59.058Z,0
2016-03-10T00:05:59.051Z,0
2016-03-10T00:06:59.007Z,0
2016-03-10T00:07:59.009Z,0
2016-03-10T00:08:58.950Z,0
2016-03-10T00:09:58.937Z,0
2016-03-10T00:10:58.939Z,0
2016-03-10T00:11:58.880Z,0
2016-03-10T00:12:58.850Z,0
2016-03-10T00:13:58.838Z,0
2016-03-10T00:14:58.794Z,0
2016-03-10T00:15:58.766Z,0
2016-03-10T00:16:58.768Z,0
2016-03-10T00:17:58.756Z,0
2016-03-10T00:18:58.696Z,0
2016-03-10T00:19:58.699Z,0
2016-03-10T00:20:58.669Z,0
2016-03-10T00:21:58.641Z,0
2016-03-10T00:22:58.627Z,0
2016-03-10T00:23:58.585Z,0
2016-03-10T00:24:58.555Z,0
2016-03-10T00:25:58.527Z,0
2016-03-10T00:26:58.513Z,0
2016-03-10T00:27:58.485Z,0
2016-03-10T00:28:58.441Z,0
2016-03-10T00:29:58.428Z,0
2016-03-10T00:30:58.119Z,0
2016-03-10T00:31:58.689Z,0
2016-03-10T00:32:58.353Z,0
2016-03-10T00:33:58.323Z,0
2016-03-10T00:34:58.342Z,0
2016-03-10T00:35:58.329Z,0
2016-03-10T00:36:58.348Z,0
2016-03-10T00:37:58.279Z,0
2016-03-10T00:38:58.218Z,0
2016-03-10T00:39:58.190Z,0
2016-03-10T00:40:58.145Z,0
2016-03-10T00:41:58.134Z,0
2016-03-10T00:42:58.401Z,0
2016-03-10T00:43:58.092Z,0
2016-03-10T00:44:58.079Z,0
2016-03-10T00:45:58.066Z,0
2016-03-10T00:46:58.022Z,0
2016-03-10T00:47:58.196Z,0
2016-03-10T00:48:57.964Z,0
2016-03-10T00:49:57.967Z,0
2016-03-10T00:50:57.908Z,0
2016-03-10T00:51:57.879Z,0
2016-03-10T00:52:57.867Z,0
2016-03-10T00:53:57.837Z,0
2016-03-10T00:54:57.839Z,0
2016-03-10T00:55:57.764Z,0
2016-03-10T00:56:57.752Z,0
2016-03-10T00:57:57.769Z,0
2016-03-10T00:58:57.695Z,0
2016-03-10T00:59:57.682Z,0
2016-03-10T01:00:57.685Z,0
2016-03-10T01:01:57.624Z,0
2016-03-10T01:02:57.627Z,0
2016-03-10T01:03:57.567Z,0
2016-03-10T01:04:57.555Z,0
2016-03-10T01:05:57.557Z,0
2016-03-10T01:06:57.482Z,0
2016-03-10T01:07:57.499Z,0
2016-03-10T01:08:57.440Z,0
2016-03-10T01:09:57.443Z,0
2016-03-10T01:10:57.399Z,0
2016-03-10T01:11:57.401Z,0
2016-03-10T01:12:57.342Z,0
2016-03-10T01:13:57.329Z,0
2016-03-10T01:14:57.315Z,0
2016-03-10T01:15:57.287Z,0
2016-03-10T01:16:57.242Z,0
2016-03-10T01:17:57.245Z,0
2016-03-10T01:18:57.217Z,0
2016-03-10T01:19:57.157Z,0
2016-03-10T01:20:57.191Z,0
2016-03-10T01:21:56.959Z,0
2016-03-10T01:22:57.102Z,0
2016-03-10T01:23:57.059Z,0
2016-03-10T01:24:57.045Z,0
2016-03-10T01:25:57.017Z,0
2016-03-10T01:26:57.005Z,0
2016-03-10T01:27:57.008Z,0
2016-03-10T01:28:57.228Z,0
2016-03-10T01:29:56.966Z,0
2016-03-10T01:30:56.890Z,0
2016-03-10T01:31:56.908Z,0
2016-03-10T01:32:56.833Z,0
2016-03-10T01:33:56.930Z,0
2016-03-10T01:34:56.776Z,0
2016-03-10T01:35:56.778Z,0
2016-03-10T01:36:56.749Z,0
2016-03-10T01:37:56.721Z,0
2016-03-10T01:38:56.755Z,0
2016-03-10T01:39:56.726Z,0
2016-03-10T01:40:56.511Z,0
2016-03-10T01:41:56.654Z,0
2016-03-10T01:42:56.594Z,0
2016-03-10T01:43:56.565Z,0
2016-03-10T01:44:56.771Z,0
2016-03-10T01:45:56.523Z,0
2016-03-10T01:46:56.480Z,0
2016-03-10T01:47:56.467Z,0
2016-03-10T01:48:56.470Z,0
2016-03-10T01:49:56.425Z,0
2016-03-10T01:50:56.397Z,0
2016-03-10T01:51:56.353Z,0
2016-03-10T01:52:56.325Z,0
2016-03-10T01:53:56.342Z,0
2016-03-10T01:54:56.283Z,0
2016-03-10T01:55:56.286Z,0
2016-03-10T01:56:56.288Z,0
2016-03-10T01:57:56.228Z,0
2016-03-10T01:58:56.230Z,0
2016-03-10T01:59:56.202Z,0
2016-03-10T02:00:56.142Z,0
2016-03-10T02:01:56.176Z,0
2016-03-10T02:02:56.085Z,0
2016-03-10T02:03:56.072Z,0
2016-03-10T02:04:56.027Z,0
2016-03-10T02:05:56.000Z,0
2016-03-10T02:06:56.033Z,0
2016-03-10T02:07:55.943Z,0
2016-03-10T02:08:55.977Z,0
2016-03-10T02:09:56.496Z,0
2016-03-10T02:10:55.888Z,0
2016-03-10T02:11:55.891Z,0
2016-03-10T02:12:55.831Z,0
2016-03-10T02:13:55.818Z,0
2016-03-10T02:14:55.774Z,0
2016-03-10T02:15:55.792Z,0
2016-03-10T02:16:55.732Z,0
2016-03-10T02:17:55.703Z,0
2016-03-10T02:18:55.690Z,0
2016-03-10T02:19:55.647Z,0
2016-03-10T02:20:55.837Z,0
2016-03-10T02:21:55.448Z,0
2016-03-10T02:22:55.593Z,0
2016-03-10T02:23:55.533Z,0
2016-03-10T02:24:55.536Z,0
2016-03-10T02:25:55.522Z,0
2016-03-10T02:26:55.462Z,0
2016-03-10T02:27:55.433Z,0
2016-03-10T02:28:55.422Z,0
2016-03-10T02:29:55.424Z,0
2016-03-10T02:30:55.645Z,0
2016-03-10T02:31:55.366Z,0
2016-03-10T02:32:55.322Z,0
2016-03-10T02:33:55.325Z,0
2016-03-10T02:34:55.312Z,0
2016-03-10T02:35:54.580Z,0
2016-03-10T02:36:55.224Z,0
2016-03-10T02:37:55.196Z,0
2016-03-10T02:38:55.198Z,0
2016-03-10T02:39:55.138Z,0
2016-03-10T02:40:55.140Z,0
2016-03-10T02:41:55.143Z,0
2016-03-10T02:42:55.130Z,0
2016-03-10T02:43:55.071Z,0
2016-03-10T02:44:55.057Z,0
2016-03-10T02:45:54.998Z,0
2016-03-10T02:46:55.250Z,0
2016-03-10T02:47:54.926Z,0
2016-03-10T02:48:54.943Z,0
2016-03-10T02:49:54.899Z,0
2016-03-10T02:50:54.870Z,0
2016-03-10T02:51:54.874Z,0
2016-03-10T02:52:54.829Z,0
2016-03-10T02:53:54.848Z,0
2016-03-10T02:54:54.756Z,0
2016-03-10T02:55:54.759Z,0
2016-03-10T02:56:54.731Z,0
2016-03-10T02:57:54.703Z,0
2016-03-10T02:58:54.689Z,0
2016-03-10T02:59:54.472Z,0
2016-03-10T03:00:54.616Z,0
2016-03-10T03:01:54.619Z,0
2016-03-10T03:02:54.575Z,0
2016-03-10T03:03:54.546Z,0
2016-03-10T03:04:54.518Z,0
2016-03-10T03:05:54.224Z,0
2016-03-10T03:06:54.461Z,0
2016-03-10T03:07:55.057Z,0
2016-03-10T03:08:54.404Z,0
2016-03-10T03:09:54.390Z,0
2016-03-10T03:10:54.362Z,0
2016-03-10T03:11:54.302Z,0
2016-03-10T03:12:54.383Z,0
2016-03-10T03:13:54.292Z,0
2016-03-10T03:14:54.263Z,0
2016-03-10T03:15:54.219Z,0
2016-03-10T03:16:54.207Z,0
2016-03-10T03:17:54.209Z,0
2016-03-10T03:18:54.146Z,0
2016-03-10T03:19:54.149Z,0
2016-03-10T03:20:54.121Z,0
2016-03-10T03:21:54.314Z,0
2016-03-10T03:22:54.064Z,0
2016-03-10T03:23:54.020Z,0
2016-03-10T03:24:54.022Z,0
2016-03-10T03:25:53.993Z,0
2016-03-10T03:26:54.012Z,0
2016-03-10T03:27:53.921Z,0
2016-03-10T03:28:53.892Z,0
2016-03-10T03:29:53.894Z,0
2016-03-10T03:30:53.897Z,0
2016-03-10T03:31:53.806Z,0
2016-03-10T03:32:53.825Z,0
2016-03-10T03:33:53.764Z,0
2016-03-10T03:34:53.767Z,0
2016-03-10T03:35:53.692Z,0
2016-03-10T03:36:53.711Z,0
2016-03-10T03:37:53.916Z,0
2016-03-10T03:38:53.637Z,0
2016-03-10T03:39:53.640Z,0
2016-03-10T03:40:53.596Z,0
2016-03-10T03:41:53.568Z,0
2016-03-10T03:42:53.585Z,0
2016-03-10T03:43:53.526Z,0
2016-03-10T03:44:53.512Z,0
2016-03-10T03:45:53.296Z,0
2016-03-10T03:46:53.456Z,0
2016-03-10T03:47:53.412Z,0
2016-03-10T03:48:53.383Z,0
2016-03-10T03:49:53.199Z,0
2016-03-10T03:50:53.342Z,0
2016-03-10T03:51:53.313Z,0
2016-03-10T03:52:53.284Z,0
2016-03-10T03:53:53.287Z,0
2016-03-10T03:54:53.243Z,0
2016-03-10T03:55:53.231Z,0
2016-03-10T03:56:53.170Z,0
2016-03-10T03:57:53.173Z,0
2016-03-10T03:58:53.160Z,0
2016-03-10T03:59:53.100Z,0
2016-03-10T04:00:53.087Z,0
2016-03-10T04:01:53.090Z,0
2016-03-10T04:02:53.014Z,0
2016-03-10T04:03:53.033Z,0
2016-03-10T04:04:53.005Z,0
2016-03-10T04:05:52.961Z,0
2016-03-10T04:06:52.932Z,0
2016-03-10T04:07:52.903Z,0
2016-03-10T04:08:52.905Z,0
2016-03-10T04:09:52.846Z,0
2016-03-10T04:10:52.880Z,0
2016-03-10T04:11:52.804Z,0
2016-03-10T04:12:52.760Z,0
2016-03-10T04:13:52.778Z,0
2016-03-10T04:14:52.719Z,0
2016-03-10T04:15:52.674Z,0
2016-03-10T04:16:52.709Z,0
2016-03-10T04:17:52.632Z,0
2016-03-10T04:18:52.621Z,0
2016-03-10T04:19:52.592Z,0
2016-03-10T04:20:52.595Z,0
2016-03-10T04:21:52.566Z,0
2016-03-10T04:22:52.522Z,0
2016-03-10T04:23:52.790Z,0
2016-03-10T04:24:52.465Z,0
2016-03-10T04:25:52.499Z,0
2016-03-10T04:26:52.251Z,0
2016-03-10T04:27:52.394Z,0
2016-03-10T04:28:52.381Z,0
2016-03-10T04:29:52.337Z,0
2016-03-10T04:30:52.356Z,0
2016-03-10T04:31:52.311Z,0
2016-03-10T04:32:52.267Z,0
2016-03-10T04:33:52.255Z,0
2016-03-10T04:34:52.226Z,0
2016-03-10T04:35:52.213Z,0
2016-03-10T04:36:52.152Z,0
2016-03-10T04:37:52.155Z,0
2016-03-10T04:38:52.111Z,0
2016-03-10T04:39:52.224Z,0
2016-03-10T04:40:52.054Z,0
2016-03-10T04:41:52.026Z,0
2016-03-10T04:42:52.012Z,0
2016-03-10T04:43:51.968Z,0
2016-03-10T04:44:51.971Z,0
2016-03-10T04:45:51.943Z,0
2016-03-10T04:46:51.898Z,0
2016-03-10T04:47:51.901Z,0
2016-03-10T04:48:51.857Z,0
2016-03-10T04:49:51.844Z,0
2016-03-10T04:50:51.800Z,0
2016-03-10T04:51:51.787Z,0
2016-03-10T04:52:51.742Z,0
2016-03-10T04:53:51.715Z,0
2016-03-10T04:54:51.717Z,0
2016-03-10T04:55:51.689Z,0
2016-03-10T04:56:51.675Z,0
2016-03-10T04:57:51.615Z,0
2016-03-10T04:58:51.602Z,0
2016-03-10T04:59:51.606Z,0
2016-03-10T05:00:51.530Z,0
2016-03-10T05:01:51.533Z,0
2016-03-10T05:02:51.519Z,0
2016-03-10T05:03:51.444Z,0
2016-03-10T05:04:51.478Z,0
2016-03-10T05:05:51.418Z,0
2016-03-10T05:06:51.389Z,0
2016-03-10T05:07:51.361Z,0
2016-03-10T05:08:51.349Z,0
2016-03-10T05:09:51.335Z,0
2016-03-10T05:10:51.291Z,0
2016-03-10T05:11:51.294Z,0
2016-03-10T05:12:51.235Z,0
2016-03-10T05:13:51.206Z,0
2016-03-10T05:14:51.271Z,0
2016-03-10T05:15:51.164Z,0
2016-03-10T05:16:51.135Z,0
2016-03-10T05:17:51.138Z,0
2016-03-10T05:18:51.079Z,0
2016-03-10T05:19:51.065Z,0
2016-03-10T05:20:51.021Z,0
2016-03-10T05:21:51.071Z,0
2016-03-10T05:22:51.011Z,0
2016-03-10T05:23:50.935Z,0
2016-03-10T05:24:50.938Z,0
2016-03-10T05:25:51.112Z,0
2016-03-10T05:26:50.881Z,0
2016-03-10T05:27:50.853Z,0
2016-03-10T05:28:50.824Z,0
2016-03-10T05:29:50.826Z,0
2016-03-10T05:30:50.783Z,0
2016-03-10T05:31:50.770Z,0
2016-03-10T05:32:50.725Z,0
2016-03-10T05:33:50.681Z,0
2016-03-10T05:34:50.699Z,0
2016-03-10T05:35:50.639Z,0
2016-03-10T05:36:50.877Z,0
2016-03-10T05:37:50.597Z,0
2016-03-10T05:38:50.585Z,0
2016-03-10T05:39:50.572Z,0
2016-03-10T05:40:50.512Z,0
2016-03-10T05:41:50.499Z,0
2016-03-10T05:42:50.486Z,0
2016-03-10T05:43:50.443Z,0
2016-03-10T05:44:50.430Z,0
2016-03-10T05:45:50.385Z,0
2016-03-10T05:46:50.357Z,0
2016-03-10T05:47:50.360Z,0
2016-03-10T05:48:50.300Z,0
2016-03-10T05:49:50.302Z,0
2016-03-10T05:50:50.274Z,0
2016-03-10T05:51:50.246Z,0
2016-03-10T05:52:50.248Z,0
2016-03-10T05:53:50.188Z,0
2016-03-10T05:54:50.206Z,0
2016-03-10T05:55:50.115Z,0
2016-03-10T05:56:50.103Z,0
2016-03-10T05:57:50.089Z,0
2016-03-10T05:58:50.061Z,0
2016-03-10T05:59:50.017Z,0
2016-03-10T06:00:50.003Z,0
2016-03-10T06:01:49.991Z,0
2016-03-10T06:02:49.946Z,0
2016-03-10T06:03:49.964Z,0
2016-03-10T06:04:49.889Z,0
2016-03-10T06:05:49.875Z,0
2016-03-10T06:06:49.878Z,0
2016-03-10T06:07:49.833Z,0
2016-03-10T06:08:49.804Z,0
2016-03-10T06:09:49.776Z,0
2016-03-10T06:10:49.764Z,0
2016-03-10T06:11:49.984Z,0
2016-03-10T06:12:49.736Z,0
2016-03-10T06:13:49.552Z,0
2016-03-10T06:14:49.649Z,0
2016-03-10T06:15:49.620Z,0
2016-03-10T06:16:49.622Z,0
2016-03-10T06:17:49.563Z,0
2016-03-10T06:18:49.566Z,0
2016-03-10T06:19:49.553Z,0
2016-03-10T06:20:49.508Z,0
2016-03-10T06:21:49.480Z,0
2016-03-10T06:22:49.435Z,0
2016-03-10T06:23:49.407Z,0
2016-03-10T06:24:49.394Z,0
2016-03-10T06:25:49.382Z,0
2016-03-10T06:26:49.352Z,0
2016-03-10T06:27:49.480Z,0
2016-03-10T06:28:49.279Z,0
2016-03-10T06:29:49.267Z,0
2016-03-10T06:30:49.254Z,0
2016-03-10T06:31:49.226Z,0
2016-03-10T06:32:49.181Z,5
2016-03-10T06:33:49.169Z,5
2016-03-10T06:34:49.109Z,5
2016-03-10T06:35:49.112Z,5
2016-03-10T06:36:49.114Z,5
2016-03-10T06:37:49.039Z,5
2016-03-10T06:38:49.056Z,5
2016-03-10T06:39:48.998Z,5
2016-03-10T06:40:49.187Z,5
2016-03-10T06:41:48.956Z,5
2016-03-10T06:42:48.927Z,5
2016-03-10T06:43:48.883Z,5
2016-03-10T06:44:48.886Z,5
2016-03-10T06:45:48.889Z,5
2016-03-10T06:46:48.828Z,5
2016-03-10T06:47:48.816Z,5
2016-03-10T06:48:48.616Z,5
2016-03-10T06:49:48.744Z,5
2016-03-10T06:50:48.761Z,5
2016-03-10T06:51:48.701Z,5
2016-03-10T06:52:48.673Z,5
2016-03-10T06:53:48.629Z,5
2016-03-10T06:54:48.632Z,5
2016-03-10T06:55:48.602Z,5
2016-03-10T06:56:48.558Z,5
2016-03-10T06:57:48.545Z,5
2016-03-10T06:58:48.549Z,5
2016-03-10T06:59:48.504Z,5
2016-03-10T07:00:48.460Z,5
2016-03-10T07:01:48.432Z,5
2016-03-10T07:02:48.404Z,5
2016-03-10T07:03:48.390Z,5
2016-03-10T07:04:48.362Z,5
2016-03-10T07:05:48.332Z,5
2016-03-10T07:06:48.320Z,5
2016-03-10T07:07:48.276Z,5
2016-03-10T07:08:48.263Z,5
2016-03-10T07:09:48.250Z,5
2016-03-10T07:10:48.205Z,5
2016-03-10T07:11:48.255Z,5
2016-03-10T07:12:48.180Z,5
2016-03-10T07:13:48.386Z,5
2016-03-10T07:14:48.091Z,5
2016-03-10T07:15:48.079Z,5
2016-03-10T07:16:48.050Z,5
2016-03-10T07:17:48.053Z,5
2016-03-10T07:18:47.992Z,10
2016-03-10T07:19:47.995Z,10
2016-03-10T07:20:47.935Z,10
2016-03-10T07:21:47.923Z,10
2016-03-10T07:22:47.941Z,10
2016-03-10T07:23:47.866Z,10
2016-03-10T07:24:48.133Z,10
2016-03-10T07:25:47.824Z,10
2016-03-10T07:26:47.796Z,10
2016-03-10T07:27:47.798Z,10
2016-03-10T07:28:47.644Z,10
2016-03-10T07:29:47.882Z,10
2016-03-10T07:30:47.713Z,10
2016-03-10T07:31:47.684Z,10
2016-03-10T07:32:47.655Z,10
2016-03-10T07:33:47.611Z,10
2016-03-10T07:34:47.615Z,10
2016-03-10T07:35:47.601Z,10
2016-03-10T07:36:47.541Z,10
2016-03-10T07:37:47.543Z,10
2016-03-10T07:38:47.468Z,10
2016-03-10T07:39:47.487Z,10
2016-03-10T07:40:47.442Z,10
2016-03-10T07:41:47.398Z,10
2016-03-10T07:42:47.386Z,10
2016-03-10T07:43:47.295Z,10
2016-03-10T07:44:47.344Z,10
2016-03-10T07:45:47.644Z,10
2016-03-10T07:46:47.272Z,10
2016-03-10T07:47:47.237Z,10
2016-03-10T07:48:47.232Z,10
2016-03-10T07:49:47.182Z,10
2016-03-10T07:50:47.178Z,10
2016-03-10T07:51:47.144Z,10
2016-03-10T07:52:47.081Z,10
2016-03-10T07:53:47.082Z,10
2016-03-10T07:54:47.050Z,10
2016-03-10T07:55:47.004Z,10
2016-03-10T07:56:47.005Z,10
2016-03-10T07:57:47.006Z,10
2016-03-10T07:58:46.946Z,10
2016-03-10T07:59:46.994Z,10
2016-03-10T08:00:46.887Z,10
2016-03-10T08:01:46.873Z,10
2016-03-10T08:02:46.828Z,10
2016-03-10T08:03:46.831Z,10
2016-03-10T08:04:47.005Z,10
2016-03-10T08:05:46.757Z,10
2016-03-10T08:06:46.760Z,10
2016-03-10T08:07:46.762Z,10
2016-03-10T08:08:46.764Z,10
2016-03-10T08:09:46.626Z,10
2016-03-10T08:10:46.661Z,10
2016-03-10T08:11:46.585Z,10
2016-03-10T08:12:46.556Z,10
2016-03-10T08:13:46.544Z,10
2016-03-10T08:14:46.514Z,10
2016-03-10T08:15:46.815Z,10
2016-03-10T08:16:46.458Z,10
2016-03-10T08:17:46.461Z,10
2016-03-10T08:18:46.433Z,10
2016-03-10T08:19:46.388Z,10
2016-03-10T08:20:46.500Z,10
2016-03-10T08:21:46.330Z,10
2016-03-10T08:22:46.334Z,10
2016-03-10T08:23:46.305Z,10
2016-03-10T08:24:46.292Z,10
2016-03-10T08:25:46.247Z,10
2016-03-10T08:26:46.219Z,10
2016-03-10T08:27:46.207Z,10
2016-03-10T08:28:46.177Z,10
2016-03-10T08:29:46.165Z,10
2016-03-10T08:30:46.121Z,10
2016-03-10T08:31:46.108Z,10
2016-03-10T08:32:46.126Z,10
2016-03-10T08:33:46.035Z,10
2016-03-10T08:34:46.022Z,15
2016-03-10T08:35:45.993Z,15
2016-03-10T08:36:45.965Z,15
2016-03-10T08:37:45.951Z,15
2016-03-10T08:38:45.908Z,15
2016-03-10T08:39:45.926Z,15
2016-03-10T08:40:45.851Z,15
2016-03-10T08:41:45.854Z,15
2016-03-10T08:42:45.856Z,15
2016-03-10T08:43:45.796Z,15
2016-03-10T08:44:45.784Z,15
2016-03-10T08:45:45.771Z,15
2016-03-10T08:46:45.695Z,15
2016-03-10T08:47:45.681Z,15
2016-03-10T08:48:45.653Z,15
2016-03-10T08:49:45.625Z,15
2016-03-10T08:50:45.674Z,15
2016-03-10T08:51:45.646Z,15
2016-03-10T08:52:45.570Z,15
2016-03-10T08:53:45.558Z,15
2016-03-10T08:54:45.483Z,15
2016-03-10T08:55:45.516Z,15
2016-03-10T08:56:44.691Z,15
2016-03-10T08:57:45.459Z,15
2016-03-10T08:58:45.508Z,15
2016-03-10T08:59:45.370Z,15
2016-03-10T09:00:45.373Z,15
2016-03-10T09:01:45.344Z,15
2016-03-10T09:02:45.316Z,15
2016-03-10T09:03:45.256Z,15
2016-03-10T09:04:45.260Z,15
2016-03-10T09:05:45.215Z,15
2016-03-10T09:06:45.323Z,15
2016-03-10T09:07:45.185Z,15
2016-03-10T09:08:45.172Z,15
2016-03-10T09:09:45.128Z,15
2016-03-10T09:10:45.083Z,15
2016-03-10T09:11:45.133Z,15
2016-03-10T09:12:45.042Z,15
2016-03-10T09:13:45.030Z,15
2016-03-10T09:14:45.001Z,15
2016-03-10T09:15:44.987Z,15
2016-03-10T09:16:44.960Z,15
2016-03-10T09:17:45.212Z,15
2016-03-10T09:18:44.918Z,15
2016-03-10T09:19:44.857Z,15
2016-03-10T09:20:44.845Z,15
2016-03-10T09:21:44.832Z,15
2016-03-10T09:22:44.943Z,15
2016-03-10T09:23:44.791Z,15
2016-03-10T09:24:44.762Z,15
2016-03-10T09:25:44.764Z,15
2016-03-10T09:26:44.736Z,15
2016-03-10T09:27:44.676Z,15
2016-03-10T09:28:44.664Z,15
2016-03-10T09:29:44.635Z,15
2016-03-10T09:30:44.591Z,20
2016-03-10T09:31:44.578Z,20
2016-03-10T09:32:44.533Z,20
2016-03-10T09:33:44.536Z,20
2016-03-10T09:34:44.539Z,20
2016-03-10T09:35:44.478Z,20
2016-03-10T09:36:44.481Z,20
2016-03-10T09:37:44.453Z,20
2016-03-10T09:38:44.409Z,20
2016-03-10T09:39:44.614Z,20
2016-03-10T09:40:44.337Z,20
2016-03-10T09:41:44.324Z,20
2016-03-10T09:42:44.342Z,20
2016-03-10T09:43:44.266Z,20
2016-03-10T09:44:44.269Z,20
2016-03-10T09:45:44.225Z,20
2016-03-10T09:46:44.212Z,20
2016-03-10T09:47:44.168Z,20
2016-03-10T09:48:44.155Z,20
2016-03-10T09:49:44.141Z,20
2016-03-10T09:50:44.102Z,20
2016-03-10T09:51:44.496Z,20
2016-03-10T09:52:44.062Z,20
2016-03-10T09:53:44.048Z,20
2016-03-10T09:54:44.034Z,20
2016-03-10T09:55:43.991Z,20
2016-03-10T09:56:43.962Z,20
2016-03-10T09:57:43.981Z,20
2016-03-10T09:58:43.921Z,20
2016-03-10T09:59:43.909Z,20
2016-03-10T10:00:43.864Z,20
2016-03-10T10:01:43.881Z,20
2016-03-10T10:02:43.839Z,20
2016-03-10T10:03:43.809Z,20
2016-03-10T10:04:43.797Z,20
2016-03-10T10:05:43.955Z,20
2016-03-10T10:06:43.739Z,20
2016-03-10T10:07:43.727Z,20
2016-03-10T10:08:43.900Z,20
2016-03-10T10:09:43.669Z,20
2016-03-10T10:10:43.625Z,20
2016-03-10T10:11:43.627Z,20
2016-03-10T10:12:43.599Z,20
2016-03-10T10:13:43.633Z,25
2016-03-10T10:14:43.557Z,25
2016-03-10T10:15:43.544Z,25
2016-03-10T10:16:43.515Z,25
2016-03-10T10:17:43.488Z,25
2016-03-10T10:18:43.459Z,25
2016-03-10T10:19:43.712Z,25
2016-03-10T10:20:43.449Z,25
2016-03-10T10:21:43.389Z,25
2016-03-10T10:22:43.376Z,25
2016-03-10T10:23:43.660Z,25
2016-03-10T10:24:43.304Z,25
2016-03-10T10:25:43.290Z,25
2016-03-10T10:26:43.448Z,25
2016-03-10T10:27:43.670Z,25
2016-03-10T10:28:43.251Z,25
2016-03-10T10:29:43.192Z,25
2016-03-10T10:30:43.195Z,25
2016-03-10T10:31:43.166Z,25
2016-03-10T10:32:43.137Z,25
2016-03-10T10:33:43.140Z,30
2016-03-10T10:34:43.080Z,30
2016-03-10T10:35:43.083Z,30
2016-03-10T10:36:43.101Z,30
2016-03-10T10:37:43.025Z,30
2016-03-10T10:38:43.044Z,30
2016-03-10T10:39:43.000Z,30
2016-03-10T10:40:42.955Z,30
2016-03-10T10:41:42.927Z,30
2016-03-10T10:42:42.930Z,30
2016-03-10T10:43:42.948Z,30
2016-03-10T10:44:42.841Z,30
2016-03-10T10:45:42.860Z,30
2016-03-10T10:46:42.815Z,30
2016-03-10T10:47:42.803Z,30
2016-03-10T10:48:43.415Z,30
2016-03-10T10:49:43.855Z,30
2016-03-10T10:50:42.748Z,35
2016-03-10T10:51:42.704Z,35
2016-03-10T10:52:42.691Z,35
2016-03-10T10:53:42.678Z,35
2016-03-10T10:54:42.931Z,35
2016-03-10T10:55:42.637Z,35
2016-03-10T10:56:42.593Z,35
2016-03-10T10:57:42.548Z,35
2016-03-10T10:58:42.551Z,35
2016-03-10T10:59:42.600Z,35
2016-03-10T11:00:42.494Z,35
2016-03-10T11:01:42.497Z,35
2016-03-10T11:02:42.453Z,35
2016-03-10T11:03:42.424Z,35
2016-03-10T11:04:42.442Z,35
2016-03-10T11:05:42.414Z,35
2016-03-10T11:06:42.369Z,35
2016-03-10T11:07:42.356Z,40
2016-03-10T11:08:42.327Z,40
2016-03-10T11:09:42.315Z,40
2016-03-10T11:10:42.599Z,40
2016-03-10T11:11:42.273Z,40
2016-03-10T11:12:41.963Z,40
2016-03-10T11:13:42.216Z,40
2016-03-10T11:14:42.188Z,40
2016-03-10T11:15:42.191Z,40
2016-03-10T11:16:42.693Z,40
2016-03-10T11:17:42.118Z,40
2016-03-10T11:18:42.105Z,40
2016-03-10T11:19:42.076Z,40
2016-03-10T11:20:42.063Z,40
2016-03-10T11:21:42.034Z,40
2016-03-10T11:22:42.037Z,40
2016-03-10T11:23:42.009Z,40
2016-03-10T11:24:41.980Z,45
2016-03-10T11:25:41.951Z,45
2016-03-10T11:26:41.954Z,45
2016-03-10T11:27:41.910Z,45
2016-03-10T11:28:41.882Z,45
2016-03-10T11:29:41.853Z,45
2016-03-10T11:30:41.856Z,45
2016-03-10T11:31:41.828Z,45
2016-03-10T11:32:41.814Z,45
2016-03-10T11:33:41.770Z,45
2016-03-10T11:34:41.742Z,50
2016-03-10T11:35:41.588Z,50
2016-03-10T11:36:41.700Z,50
2016-03-10T11:37:41.703Z,50
2016-03-10T11:38:41.659Z,50
2016-03-10T11:39:41.630Z,50
2016-03-10T11:40:41.633Z,50
2016-03-10T11:41:41.588Z,50
2016-03-10T11:42:41.622Z,50
2016-03-10T11:43:41.578Z,55
2016-03-10T11:44:41.518Z,55
2016-03-10T11:45:41.521Z,55
2016-03-10T11:46:41.493Z,55
2016-03-10T11:47:41.510Z,55
2016-03-10T11:48:41.451Z,55
2016-03-10T11:49:41.422Z,55
2016-03-10T11:50:41.394Z,55
2016-03-10T11:51:41.365Z,60
2016-03-10T11:52:41.399Z,60
2016-03-10T11:53:41.340Z,60
2016-03-10T11:54:41.296Z,55
2016-03-10T11:55:41.282Z,60
2016-03-10T11:56:41.395Z,60
2016-03-10T11:57:41.241Z,60
2016-03-10T11:58:41.260Z,60
2016-03-10T11:59:41.215Z,55
2016-03-10T12:00:41.171Z,55
2016-03-10T12:01:41.174Z,60
2016-03-10T12:02:41.129Z,55
2016-03-10T12:03:42.523Z,55
2016-03-10T12:04:41.087Z,60
2016-03-10T12:05:41.076Z,60
2016-03-10T12:06:41.077Z,60
2016-03-10T12:07:41.206Z,60
2016-03-10T12:08:41.006Z,60
2016-03-10T12:09:41.022Z,60
2016-03-10T12:10:40.964Z,60
2016-03-10T12:11:40.950Z,60
2016-03-10T12:12:41.030Z,65
2016-03-10T12:13:40.893Z,65
2016-03-10T12:14:40.880Z,65
2016-03-10T12:15:40.852Z,65
2016-03-10T12:16:40.838Z,65
2016-03-10T12:17:40.842Z,65
2016-03-10T12:18:40.782Z,65
2016-03-10T12:19:40.785Z,70
2016-03-10T12:20:40.772Z,70
2016-03-10T12:21:40.712Z,70
2016-03-10T12:22:40.730Z,70
2016-03-10T12:23:40.686Z,70
2016-03-10T12:24:40.688Z,70
2016-03-10T12:25:40.629Z,70
2016-03-10T12:26:40.913Z,70
2016-03-10T12:27:40.712Z,70
2016-03-10T12:28:40.527Z,70
2016-03-10T12:29:40.546Z,70
2016-03-10T12:30:40.533Z,75
2016-03-10T12:31:40.520Z,75
2016-03-10T12:32:40.492Z,75
2016-03-10T12:33:40.479Z,80
2016-03-10T12:34:40.418Z,80
2016-03-10T12:35:40.453Z,80
2016-03-10T12:36:40.393Z,80
2016-03-10T12:37:40.364Z,80
2016-03-10T12:38:40.398Z,80
2016-03-10T12:39:40.354Z,80
2016-03-10T12:40:40.357Z,80
2016-03-10T12:41:40.281Z,80
2016-03-10T12:42:40.315Z,75
2016-03-10T12:43:40.272Z,75
2016-03-10T12:44:40.227Z,75
2016-03-10T12:45:40.230Z,75
2016-03-10T12:46:40.217Z,75
2016-03-10T12:47:40.157Z,75
2016-03-10T12:48:40.285Z,75
2016-03-10T12:49:40.130Z,80
2016-03-10T12:50:40.102Z,80
2016-03-10T12:51:40.074Z,80
2016-03-10T12:52:40.108Z,80
2016-03-10T12:53:40.033Z,80
2016-03-10T12:54:40.035Z,80
2016-03-10T12:55:39.991Z,85
2016-03-10T12:56:39.977Z,85
2016-03-10T12:57:39.965Z,80
2016-03-10T12:58:39.967Z,85
2016-03-10T12:59:40.142Z,80
2016-03-10T13:00:40.317Z,80
2016-03-10T13:01:39.913Z,80
2016-03-10T13:02:39.838Z,80
2016-03-10T13:03:39.826Z,80
2016-03-10T13:04:39.828Z,80
2016-03-10T13:05:39.768Z,80
2016-03-10T13:06:39.786Z,80
2016-03-10T13:07:39.726Z,80
2016-03-10T13:08:39.714Z,80
2016-03-10T13:09:39.685Z,80
2016-03-10T13:10:41.219Z,80
2016-03-10T13:11:39.659Z,80
2016-03-10T13:12:39.614Z,80
2016-03-10T13:13:39.640Z,85
2016-03-10T13:14:39.643Z,85
2016-03-10T13:15:39.567Z,85
2016-03-10T13:16:39.555Z,85
2016-03-10T13:17:39.526Z,85
2016-03-10T13:18:39.513Z,85
2016-03-10T13:19:39.344Z,85
2016-03-10T13:20:39.455Z,85
2016-03-10T13:21:39.458Z,85
2016-03-10T13:22:39.430Z,85
2016-03-10T13:23:39.401Z,85
2016-03-10T13:24:39.420Z,85
2016-03-10T13:25:39.328Z,85
2016-03-10T13:26:39.347Z,80
2016-03-10T13:27:39.303Z,80
2016-03-10T13:28:39.274Z,80
2016-03-10T13:29:39.292Z,80
2016-03-10T13:30:39.247Z,80
2016-03-10T13:31:39.203Z,80
2016-03-10T13:32:39.206Z,80
2016-03-10T13:33:39.178Z,80
2016-03-10T13:34:39.164Z,80
2016-03-10T13:35:39.120Z,75
2016-03-10T13:36:39.109Z,75
2016-03-10T13:37:39.157Z,75
2016-03-10T13:38:39.066Z,75
2016-03-10T13:39:39.069Z,75
2016-03-10T13:40:39.025Z,80
2016-03-10T13:41:39.028Z,80
2016-03-10T13:42:39.015Z,80
2016-03-10T13:43:39.033Z,80
2016-03-10T13:44:38.974Z,75
2016-03-10T13:45:39.070Z,75
2016-03-10T13:46:38.932Z,75
2016-03-10T13:47:38.950Z,75
2016-03-10T13:48:38.874Z,75
2016-03-10T13:49:39.221Z,75
2016-03-10T13:50:38.832Z,70
2016-03-10T13:51:38.821Z,65
2016-03-10T13:52:38.791Z,65
2016-03-10T13:53:38.794Z,70
2016-03-10T13:54:38.751Z,70
2016-03-10T13:55:38.737Z,70
2016-03-10T13:56:38.927Z,70
2016-03-10T13:57:38.696Z,70
2016-03-10T13:58:38.682Z,75
2016-03-10T13:59:38.654Z,75
2016-03-10T14:00:38.641Z,75
2016-03-10T14:01:38.612Z,70
2016-03-10T14:02:38.568Z,70
2016-03-10T14:03:38.431Z,70
2016-03-10T14:04:38.528Z,65
2016-03-10T14:05:38.545Z,65
2016-03-10T14:06:38.497Z,65
2016-03-10T14:07:38.719Z,65
2016-03-10T14:08:38.472Z,65
2016-03-10T14:09:38.443Z,65
2016-03-10T14:10:38.415Z,65
2016-03-10T14:11:38.432Z,65
2016-03-10T14:12:38.372Z,65
2016-03-10T14:13:38.375Z,65
2016-03-10T14:14:38.315Z,60
2016-03-10T14:15:38.209Z,60
2016-03-10T14:16:38.321Z,65
2016-03-10T14:17:38.276Z,65
2016-03-10T14:18:38.279Z,60
2016-03-10T14:19:38.235Z,60
2016-03-10T14:20:38.222Z,60
2016-03-10T14:21:38.209Z,60
2016-03-10T14:22:38.197Z,60
2016-03-10T14:23:38.122Z,60
2016-03-10T14:24:38.124Z,60
2016-03-10T14:25:38.142Z,60
2016-03-10T14:26:38.066Z,60
2016-03-10T14:27:38.085Z,55
2016-03-10T14:28:38.041Z,55
2016-03-10T14:29:38.028Z,55
2016-03-10T14:30:38.015Z,55
2016-03-10T14:31:38.018Z,55